createdAt,value
2017-05-21T00:01:24.681Z,84.60
2017-05-21T00:03:52.364Z,84.60
2017-05-21T00:06:20.035Z,84.80
2017-05-21T00:08:47.680Z,84.90
2017-05-21T00:11:15.677Z,84.80
2017-05-21T00:13:43.325Z,84.60
2017-05-21T00:16:10.970Z,84.50
2017-05-21T00:18:38.664Z,84.40
2017-05-21T00:21:07.170Z,84.60
2017-05-21T00:23:35.233Z,84.90
2017-05-21T00:26:02.893Z,85.50
2017-05-21T00:28:30.545Z,85.60
2017-05-21T00:30:58.218Z,86.00
2017-05-21T00:33:26.626Z,85.80
2017-05-21T00:35:54.621Z,85.80
2017-05-21T00:38:22.291Z,86.20
2017-05-21T00:40:49.957Z,86.50
2017-05-21T00:43:18.402Z,86.90
2017-05-21T00:45:46.819Z,86.90
2017-05-21T00:48:14.878Z,86.90
2017-05-21T00:50:42.521Z,86.60
2017-05-21T00:53:10.181Z,86.20
2017-05-21T00:55:37.853Z,86.40
2017-05-21T00:58:05.505Z,87.20
2017-05-21T01:00:33.529Z,86.90
2017-05-21T01:03:01.179Z,87.80
2017-05-21T01:05:28.823Z,87.00
2017-05-21T01:07:56.525Z,87.10
2017-05-21T01:10:24.177Z,86.40
2017-05-21T01:12:52.169Z,86.10
2017-05-21T01:15:19.819Z,85.80
2017-05-21T01:17:47.476Z,86.20
2017-05-21T01:20:15.153Z,86.00
2017-05-21T01:22:42.803Z,85.90
2017-05-21T01:25:10.484Z,85.50
2017-05-21T01:27:38.127Z,85.50
2017-05-21T01:30:06.196Z,85.90
2017-05-21T01:32:34.610Z,85.50
2017-05-21T01:35:02.281Z,85.60
2017-05-21T01:37:30.716Z,85.90
2017-05-21T01:39:58.386Z,86.60
2017-05-21T01:42:26.377Z,84.90
2017-05-21T01:44:54.033Z,84.70
2017-05-21T01:47:21.672Z,85.50
2017-05-21T01:49:49.343Z,85.80
2017-05-21T01:52:17.102Z,86.20
2017-05-21T01:54:45.120Z,85.60
2017-05-21T01:57:12.769Z,85.10
2017-05-21T01:59:40.415Z,85.10
2017-05-21T02:02:08.085Z,84.80
2017-05-21T02:04:35.735Z,84.90
2017-05-21T02:07:04.482Z,85.40
2017-05-21T02:09:32.125Z,85.40
2017-05-21T02:11:59.769Z,85.40
2017-05-21T02:14:28.272Z,85.80
2017-05-21T02:16:55.915Z,85.70
2017-05-21T02:19:23.949Z,86.00
2017-05-21T02:21:51.597Z,85.70
2017-05-21T02:24:19.243Z,85.00
2017-05-21T02:26:46.916Z,85.80
2017-05-21T02:29:14.561Z,84.70
2017-05-21T02:31:43.301Z,86.40
2017-05-21T02:34:11.709Z,86.20
2017-05-21T02:36:39.353Z,86.20
2017-05-21T02:39:07.807Z,86.20
2017-05-21T02:41:36.217Z,86.00
2017-05-21T02:44:04.177Z,86.10
2017-05-21T02:46:32.596Z,87.00
2017-05-21T02:49:00.245Z,87.00
2017-05-21T02:51:28.799Z,87.00
2017-05-21T02:53:56.445Z,86.80
2017-05-21T02:56:25.185Z,87.70
2017-05-21T02:58:52.834Z,87.70
2017-05-21T03:01:20.478Z,88.30
2017-05-21T03:03:48.206Z,88.70
2017-05-21T03:06:15.845Z,89.00
2017-05-21T03:08:43.840Z,89.00
2017-05-21T03:11:12.340Z,89.40
2017-05-21T03:13:39.995Z,89.40
2017-05-21T03:16:07.676Z,89.40
2017-05-21T03:18:35.333Z,89.40
2017-05-21T03:21:03.307Z,90.00
2017-05-21T03:23:30.971Z,90.30
2017-05-21T03:25:58.631Z,90.70
2017-05-21T03:28:26.329Z,90.70
2017-05-21T03:30:54.766Z,90.90
2017-05-21T03:33:23.592Z,90.90
2017-05-21T03:35:52.005Z,90.40
2017-05-21T03:38:19.659Z,90.40
2017-05-21T03:40:47.337Z,90.60
2017-05-21T03:43:15.754Z,90.10
2017-05-21T03:45:44.609Z,90.10
2017-05-21T03:48:12.265Z,90.10
2017-05-21T03:50:40.692Z,89.50
2017-05-21T03:53:08.368Z,89.50
2017-05-21T03:55:36.781Z,89.30
2017-05-21T03:58:04.460Z,89.30
2017-05-21T04:00:32.974Z,88.10
2017-05-21T04:03:00.625Z,87.40
2017-05-21T04:05:28.280Z,88.30
2017-05-21T04:07:56.256Z,87.60
2017-05-21T04:10:23.938Z,87.20
2017-05-21T04:12:52.349Z,86.60
2017-05-21T04:15:20.028Z,86.50
2017-05-21T04:17:47.681Z,87.00
2017-05-21T04:20:15.730Z,85.90
2017-05-21T04:22:44.204Z,84.40
2017-05-21T04:25:11.857Z,84.40
2017-05-21T04:27:39.524Z,83.90
2017-05-21T04:30:07.170Z,84.40
2017-05-21T04:32:35.192Z,84.60
2017-05-21T04:35:02.835Z,83.30
2017-05-21T04:37:30.485Z,82.90
2017-05-21T04:39:58.161Z,82.00
2017-05-21T04:42:25.819Z,81.80
2017-05-21T04:44:53.827Z,82.50
2017-05-21T04:47:21.469Z,81.70
2017-05-21T04:49:49.122Z,82.60
2017-05-21T04:52:16.805Z,81.50
2017-05-21T04:54:45.233Z,81.10
2017-05-21T04:57:14.008Z,78.70
2017-05-21T04:59:42.445Z,78.10
2017-05-21T05:02:10.101Z,78.00
2017-05-21T05:04:38.545Z,74.70
2017-05-21T05:07:06.208Z,74.60
2017-05-21T05:09:34.182Z,73.90
2017-05-21T05:12:01.841Z,71.90
2017-05-21T05:14:30.261Z,68.00
2017-05-21T05:16:57.945Z,67.90
2017-05-21T05:19:25.634Z,67.80
2017-05-21T05:21:53.650Z,66.00
2017-05-21T05:24:22.082Z,65.00
2017-05-21T05:26:49.741Z,65.10
2017-05-21T05:29:17.440Z,64.60
2017-05-21T05:31:45.097Z,65.10
2017-05-21T05:34:13.057Z,64.70
2017-05-21T05:36:41.476Z,65.00
2017-05-21T05:39:09.128Z,65.00
2017-05-21T05:41:36.817Z,61.40
2017-05-21T05:44:04.484Z,58.80
2017-05-21T05:46:32.431Z,57.20
2017-05-21T05:49:00.854Z,57.80
2017-05-21T05:51:28.506Z,57.90
2017-05-21T05:53:56.210Z,55.20
2017-05-21T05:56:24.625Z,51.50
2017-05-21T05:58:52.640Z,51.50
2017-05-21T06:01:20.307Z,48.50
2017-05-21T06:03:48.896Z,43.20
2017-05-21T06:06:19.536Z,43.10
2017-05-21T06:08:47.166Z,40.60
2017-05-21T06:11:15.180Z,39.40
2017-05-21T06:13:43.571Z,36.70
2017-05-21T06:16:11.196Z,36.60
2017-05-21T06:18:38.857Z,36.70
2017-05-21T06:21:06.493Z,37.00
2017-05-21T06:23:34.421Z,34.30
2017-05-21T06:26:02.849Z,34.80
2017-05-21T06:28:30.473Z,34.80
2017-05-21T06:30:58.880Z,32.80
2017-05-21T06:33:26.511Z,32.70
2017-05-21T06:35:55.321Z,31.90
2017-05-21T06:38:23.706Z,31.10
2017-05-21T06:40:51.401Z,31.10
2017-05-21T06:43:19.813Z,31.70
2017-05-21T06:45:48.279Z,30.40
2017-05-21T06:48:16.325Z,30.40
2017-05-21T06:50:44.801Z,30.00
2017-05-21T06:53:12.433Z,30.00
2017-05-21T06:55:40.081Z,29.80
2017-05-21T06:58:08.583Z,28.50
2017-05-21T07:00:36.632Z,28.40
2017-05-21T07:03:04.286Z,29.30
2017-05-21T07:05:31.931Z,28.30
2017-05-21T07:07:59.769Z,27.10
2017-05-21T07:10:27.397Z,27.90
2017-05-21T07:12:55.426Z,29.40
2017-05-21T07:15:23.051Z,29.90
2017-05-21T07:17:50.797Z,29.80
2017-05-21T07:20:18.565Z,27.60
2017-05-21T07:22:46.194Z,28.90
2017-05-21T07:25:15.023Z,29.10
2017-05-21T07:27:42.651Z,29.10
2017-05-21T07:30:10.265Z,28.40
2017-05-21T07:32:37.991Z,28.40
2017-05-21T07:35:05.774Z,28.30
2017-05-21T07:37:33.720Z,29.00
2017-05-21T07:40:01.394Z,27.70
2017-05-21T07:42:29.783Z,28.70
2017-05-21T07:44:57.447Z,28.70
2017-05-21T07:47:25.824Z,31.00
2017-05-21T07:49:54.555Z,32.70
2017-05-21T07:52:22.235Z,32.70
2017-05-21T07:54:49.889Z,33.00
2017-05-21T07:57:17.528Z,30.00
2017-05-21T07:59:45.149Z,29.80
2017-05-21T08:02:13.844Z,31.80
2017-05-21T08:04:42.265Z,31.70
2017-05-21T08:07:09.885Z,32.20
2017-05-21T08:09:37.535Z,29.70
2017-05-21T08:12:05.200Z,29.50
2017-05-21T08:14:33.257Z,28.60
2017-05-21T08:17:01.108Z,27.90
2017-05-21T08:19:28.734Z,25.40
2017-05-21T08:21:56.397Z,23.20
2017-05-21T08:24:24.796Z,25.40
2017-05-21T08:26:52.950Z,25.50
2017-05-21T08:29:20.575Z,24.40
2017-05-21T08:31:48.197Z,25.20
2017-05-21T08:34:16.611Z,24.30
2017-05-21T08:36:44.246Z,24.30
2017-05-21T08:39:12.945Z,27.60
2017-05-21T08:41:40.600Z,27.60
2017-05-21T08:44:08.225Z,30.60
2017-05-21T08:46:36.636Z,33.20
2017-05-21T08:49:04.248Z,33.10
2017-05-21T08:51:32.198Z,34.50
2017-05-21T08:54:00.133Z,31.80
2017-05-21T08:56:28.056Z,30.80
2017-05-21T08:58:55.708Z,31.40
2017-05-21T09:01:25.335Z,31.20
2017-05-21T09:03:54.033Z,31.40
2017-05-21T09:06:21.837Z,32.50
2017-05-21T09:08:49.833Z,35.00
2017-05-21T09:11:17.737Z,31.50
2017-05-21T09:13:46.979Z,29.90
2017-05-21T09:16:16.237Z,29.10
2017-05-21T09:18:43.888Z,30.80
2017-05-21T09:21:12.282Z,31.10
2017-05-21T09:23:41.221Z,31.30
2017-05-21T09:26:08.880Z,31.30
2017-05-21T09:28:36.523Z,29.50
2017-05-21T09:31:04.174Z,30.20
2017-05-21T09:33:32.576Z,30.50
2017-05-21T09:36:05.401Z,30.10
2017-05-21T09:38:33.021Z,30.00
2017-05-21T09:41:01.421Z,31.60
2017-05-21T09:43:29.083Z,31.40
2017-05-21T09:45:56.716Z,29.60
2017-05-21T09:48:24.666Z,29.90
2017-05-21T09:50:53.065Z,27.80
2017-05-21T09:53:20.680Z,27.80
2017-05-21T09:55:48.324Z,26.60
2017-05-21T09:58:16.734Z,28.40
2017-05-21T10:00:44.697Z,28.50
2017-05-21T10:03:12.314Z,29.90
2017-05-21T10:05:40.726Z,29.30
2017-05-21T10:08:08.389Z,29.30
2017-05-21T10:10:36.782Z,30.30
2017-05-21T10:13:04.703Z,30.80
2017-05-21T10:15:32.316Z,31.60
2017-05-21T10:18:00.701Z,34.50
2017-05-21T10:20:28.357Z,34.50
2017-05-21T10:22:55.985Z,36.10
2017-05-21T10:25:23.934Z,36.20
2017-05-21T10:27:51.581Z,36.30
2017-05-21T10:30:20.001Z,37.40
2017-05-21T10:32:48.453Z,37.50
2017-05-21T10:35:16.117Z,37.40
2017-05-21T10:37:44.097Z,35.10
2017-05-21T10:40:11.734Z,36.10
2017-05-21T10:42:39.371Z,36.10
2017-05-21T10:45:07.185Z,35.30
2017-05-21T10:47:36.422Z,33.40
2017-05-21T10:50:04.491Z,33.40
2017-05-21T10:52:32.273Z,33.00
2017-05-21T10:54:59.945Z,32.10
2017-05-21T10:57:27.609Z,30.90
2017-05-21T10:59:55.355Z,30.70
2017-05-21T11:02:23.367Z,28.40
2017-05-21T11:04:51.564Z,27.00
2017-05-21T11:07:19.210Z,25.10
2017-05-21T11:09:47.618Z,24.00
2017-05-21T11:12:16.038Z,23.90
2017-05-21T11:14:44.090Z,24.20
2017-05-21T11:17:11.774Z,24.10
2017-05-21T11:19:39.434Z,23.20
2017-05-21T11:22:07.083Z,22.30
2017-05-21T11:24:34.774Z,21.40
2017-05-21T11:27:02.732Z,21.50
2017-05-21T11:29:30.372Z,22.70
2017-05-21T11:31:58.783Z,21.20
2017-05-21T11:34:26.440Z,21.20
2017-05-21T11:36:54.076Z,22.40
2017-05-21T11:39:22.147Z,22.30
2017-05-21T11:41:50.552Z,22.80
2017-05-21T11:44:18.167Z,22.60
2017-05-21T11:46:45.841Z,21.90
2017-05-21T11:49:14.232Z,24.00
2017-05-21T11:51:42.216Z,24.00
2017-05-21T11:54:09.843Z,25.60
2017-05-21T11:56:37.481Z,25.20
2017-05-21T11:59:05.146Z,24.40
2017-05-21T12:01:32.800Z,25.10
2017-05-21T12:04:00.420Z,25.80
2017-05-21T12:06:28.392Z,26.60
2017-05-21T12:08:56.807Z,28.40
2017-05-21T12:11:25.688Z,30.80
2017-05-21T12:13:53.697Z,30.10
2017-05-21T12:16:21.367Z,27.80
2017-05-21T12:18:49.757Z,29.10
2017-05-21T12:21:17.405Z,29.00
2017-05-21T12:23:45.040Z,28.50
2017-05-21T12:26:12.976Z,26.90
2017-05-21T12:28:40.606Z,27.40
2017-05-21T12:31:09.006Z,27.80
2017-05-21T12:33:37.425Z,27.90
2017-05-21T12:36:05.054Z,27.90
2017-05-21T12:38:33.873Z,27.50
2017-05-21T12:41:02.275Z,27.50
2017-05-21T12:43:30.665Z,29.20
2017-05-21T12:45:58.323Z,29.20
2017-05-21T12:48:26.013Z,30.00
2017-05-21T12:50:54.021Z,30.50
2017-05-21T12:53:22.481Z,29.60
2017-05-21T12:55:50.129Z,29.60
2017-05-21T12:58:17.787Z,28.80
2017-05-21T13:00:45.413Z,29.80
2017-05-21T13:03:14.206Z,27.90
2017-05-21T13:05:41.847Z,27.90
2017-05-21T13:08:09.472Z,27.80
2017-05-21T13:10:37.143Z,30.10
2017-05-21T13:13:04.797Z,29.10
2017-05-21T13:15:32.721Z,29.40
2017-05-21T13:18:01.117Z,27.60
2017-05-21T13:20:28.750Z,27.60
2017-05-21T13:22:56.566Z,26.40
2017-05-21T13:25:24.274Z,28.50
2017-05-21T13:27:52.218Z,24.70
2017-05-21T13:30:20.608Z,25.60
2017-05-21T13:32:48.997Z,27.30
2017-05-21T13:35:16.658Z,27.30
2017-05-21T13:37:44.290Z,27.70
2017-05-21T13:40:12.224Z,27.10
2017-05-21T13:42:39.848Z,27.70
2017-05-21T13:45:07.476Z,26.00
2017-05-21T13:47:35.117Z,26.60
2017-05-21T13:50:02.742Z,26.80
2017-05-21T13:52:30.735Z,29.10
2017-05-21T13:54:58.582Z,27.10
2017-05-21T13:57:26.235Z,28.10
2017-05-21T13:59:53.887Z,26.80
2017-05-21T14:02:22.300Z,26.10
2017-05-21T14:04:50.371Z,26.00
2017-05-21T14:07:18.876Z,26.20
2017-05-21T14:09:47.285Z,27.60
2017-05-21T14:12:15.711Z,27.50
2017-05-21T14:14:44.111Z,26.20
2017-05-21T14:19:45.986Z,28.90
2017-05-21T14:22:13.989Z,28.50
2017-05-21T14:24:41.655Z,27.30
2017-05-21T14:27:09.289Z,27.60
2017-05-21T14:29:37.138Z,28.40
2017-05-21T14:32:05.573Z,27.80
2017-05-21T14:34:33.496Z,27.80
2017-05-21T14:37:01.131Z,27.00
2017-05-21T14:39:29.516Z,28.00
2017-05-21T14:41:57.936Z,27.50
2017-05-21T14:44:26.337Z,27.80
2017-05-21T14:46:54.270Z,27.80
2017-05-21T14:49:21.905Z,26.30
2017-05-21T14:51:50.330Z,26.80
2017-05-21T14:54:18.003Z,26.70
2017-05-21T14:56:45.678Z,26.30
2017-05-21T14:59:13.656Z,27.40
2017-05-21T15:01:41.301Z,29.60
2017-05-21T15:04:09.714Z,29.40
2017-05-21T15:06:38.161Z,27.40
2017-05-21T15:09:05.825Z,27.40
2017-05-21T15:11:33.825Z,26.10
2017-05-21T15:14:01.482Z,26.00
2017-05-21T15:16:29.124Z,25.70
2017-05-21T15:18:56.772Z,27.20
2017-05-21T15:21:24.418Z,27.60
2017-05-21T15:23:53.182Z,26.50
2017-05-21T15:26:20.816Z,26.50
2017-05-21T15:28:49.203Z,26.70
2017-05-21T15:31:16.853Z,26.50
2017-05-21T15:33:45.261Z,26.30
2017-05-21T15:36:13.264Z,26.30
2017-05-21T15:38:40.948Z,26.80
2017-05-21T15:41:08.595Z,27.80
2017-05-21T15:43:37.058Z,27.00
2017-05-21T15:46:04.705Z,26.60
2017-05-21T15:48:32.675Z,26.20
2017-05-21T15:51:00.339Z,26.00
2017-05-21T15:53:28.753Z,26.30
2017-05-21T15:55:56.539Z,26.10
2017-05-21T15:58:24.222Z,27.20
2017-05-21T16:00:52.192Z,26.90
2017-05-21T16:03:20.595Z,26.10
2017-05-21T16:05:48.264Z,26.20
2017-05-21T16:08:15.963Z,27.40
2017-05-21T16:10:43.592Z,27.50
2017-05-21T16:13:12.294Z,26.90
2017-05-21T16:15:39.932Z,26.90
2017-05-21T16:18:08.361Z,26.90
2017-05-21T16:20:36.014Z,26.30
2017-05-21T16:23:04.447Z,26.60
2017-05-21T16:25:32.386Z,26.70
2017-05-21T16:28:00.800Z,26.70
2017-05-21T16:30:28.414Z,26.60
2017-05-21T16:32:56.852Z,26.90
2017-05-21T16:35:24.494Z,26.70
2017-05-21T16:37:52.523Z,26.60
2017-05-21T16:40:21.660Z,25.90
2017-05-21T16:42:49.292Z,25.90
2017-05-21T16:45:17.001Z,26.90
2017-05-21T16:47:45.478Z,25.60
2017-05-21T16:50:13.506Z,25.60
2017-05-21T16:52:41.921Z,26.30
2017-05-21T16:55:10.352Z,26.80
2017-05-21T16:57:38.800Z,25.80
2017-05-21T17:00:06.440Z,25.80
2017-05-21T17:02:35.153Z,26.30
2017-05-21T17:05:02.804Z,26.30
2017-05-21T17:07:30.469Z,27.40
2017-05-21T17:09:58.136Z,26.20
2017-05-21T17:12:25.788Z,28.50
2017-05-21T17:14:53.828Z,29.10
2017-05-21T17:17:21.481Z,28.30
2017-05-21T17:19:49.132Z,28.40
2017-05-21T17:22:16.835Z,29.50
2017-05-21T17:24:44.551Z,30.50
2017-05-21T17:27:12.505Z,29.80
2017-05-21T17:29:40.164Z,30.10
2017-05-21T17:32:07.826Z,28.40
2017-05-21T17:34:35.541Z,28.00
2017-05-21T17:37:03.200Z,29.90
2017-05-21T17:39:31.160Z,29.20
2017-05-21T17:41:58.808Z,29.80
2017-05-21T17:44:26.469Z,28.40
2017-05-21T17:46:54.146Z,29.50
2017-05-21T17:49:21.805Z,28.60
2017-05-21T17:51:50.662Z,30.30
2017-05-21T17:54:18.412Z,30.30
2017-05-21T17:56:46.062Z,30.20
2017-05-21T17:59:13.744Z,30.30
2017-05-21T18:01:41.438Z,31.00
2017-05-21T18:04:09.471Z,31.50
2017-05-21T18:06:37.177Z,31.90
2017-05-21T18:09:04.837Z,32.20
2017-05-21T18:11:32.598Z,33.40
2017-05-21T18:14:00.260Z,33.70
2017-05-21T18:16:28.334Z,35.20
2017-05-21T18:18:55.996Z,35.00
2017-05-21T18:21:23.653Z,34.30
2017-05-21T18:23:51.472Z,36.20
2017-05-21T18:26:19.953Z,36.80
2017-05-21T18:28:48.073Z,36.70
2017-05-21T18:31:15.737Z,37.60
2017-05-21T18:33:43.384Z,38.70
2017-05-21T18:36:11.301Z,38.00
2017-05-21T18:38:39.774Z,39.10
2017-05-21T18:41:07.748Z,39.00
2017-05-21T18:43:35.394Z,40.10
2017-05-21T18:46:03.072Z,39.60
2017-05-21T18:48:30.753Z,40.40
2017-05-21T18:50:59.175Z,42.30
2017-05-21T18:53:28.101Z,42.20
2017-05-21T18:55:57.268Z,40.20
2017-05-21T18:58:25.633Z,40.20
2017-05-21T19:00:53.754Z,41.00
2017-05-21T19:03:23.231Z,43.40
2017-05-21T19:05:51.219Z,43.70
2017-05-21T19:08:19.640Z,45.00
2017-05-21T19:10:47.296Z,44.90
2017-05-21T19:13:14.989Z,44.70
2017-05-21T19:15:42.653Z,44.60
2017-05-21T19:18:11.376Z,45.90
2017-05-21T19:20:39.040Z,45.90
2017-05-21T19:23:06.713Z,47.00
2017-05-21T19:25:35.160Z,48.10
2017-05-21T19:28:02.822Z,48.00
2017-05-21T19:30:30.501Z,46.30
2017-05-21T19:32:58.947Z,46.80
2017-05-21T19:35:26.714Z,46.70
2017-05-21T19:37:54.686Z,47.00
2017-05-21T19:40:23.120Z,48.20
2017-05-21T19:42:50.848Z,48.30
2017-05-21T19:45:19.560Z,49.30
2017-05-21T19:47:47.287Z,49.30
2017-05-21T19:50:14.964Z,50.00
2017-05-21T19:52:43.172Z,51.20
2017-05-21T19:55:10.828Z,51.00
2017-05-21T19:57:38.493Z,52.90
2017-05-21T20:00:06.334Z,52.10
2017-05-21T20:02:33.982Z,52.50
2017-05-21T20:05:01.946Z,53.10
2017-05-21T20:07:29.607Z,54.10
2017-05-21T20:09:57.269Z,54.20
2017-05-21T20:12:24.960Z,54.10
2017-05-21T20:14:52.603Z,55.00
2017-05-21T20:17:20.600Z,56.30
2017-05-21T20:19:48.274Z,55.90
2017-05-21T20:22:15.925Z,56.70
2017-05-21T20:24:43.971Z,57.60
2017-05-21T20:27:12.380Z,57.90
2017-05-21T20:29:40.338Z,57.90
2017-05-21T20:32:07.993Z,57.20
2017-05-21T20:34:35.649Z,56.90
2017-05-21T20:37:03.312Z,57.20
2017-05-21T20:39:30.961Z,58.20
2017-05-21T20:41:59.962Z,60.00
2017-05-21T20:44:28.509Z,60.30
2017-05-21T20:46:56.166Z,60.20
2017-05-21T20:49:24.441Z,60.80
2017-05-21T20:51:52.106Z,61.60
2017-05-21T20:54:20.105Z,63.20
2017-05-21T20:56:47.757Z,62.40
2017-05-21T20:59:15.408Z,63.10
2017-05-21T21:01:43.118Z,62.70
2017-05-21T21:04:10.910Z,62.60
2017-05-21T21:06:38.965Z,62.30
2017-05-21T21:09:06.616Z,62.70
2017-05-21T21:11:34.263Z,63.00
2017-05-21T21:14:02.711Z,63.50
2017-05-21T21:16:30.368Z,63.50
2017-05-21T21:18:59.122Z,63.40
2017-05-21T21:21:26.765Z,63.80
2017-05-21T21:24:00.220Z,65.10
2017-05-21T21:26:28.186Z,64.50
2017-05-21T21:29:02.209Z,64.30
2017-05-21T21:31:29.861Z,64.30
2017-05-21T21:33:57.519Z,64.40
2017-05-21T21:36:25.261Z,65.70
2017-05-21T21:38:53.914Z,65.10
2017-05-21T21:41:21.877Z,65.00
2017-05-21T21:43:49.526Z,66.00
2017-05-21T21:46:17.180Z,65.30
2017-05-21T21:48:45.626Z,66.60
2017-05-21T21:51:13.287Z,66.60
2017-05-21T21:53:41.241Z,66.60
2017-05-21T21:56:11.620Z,65.90
2017-05-21T21:58:39.284Z,66.00
2017-05-21T22:01:06.964Z,65.90
2017-05-21T22:03:35.423Z,67.50
2017-05-21T22:06:03.374Z,67.60
2017-05-21T22:08:31.030Z,66.50
2017-05-21T22:10:59.438Z,67.40
2017-05-21T22:13:27.153Z,67.40
2017-05-21T22:15:54.794Z,68.30
2017-05-21T22:18:23.508Z,69.10
2017-05-21T22:20:51.918Z,69.20
2017-05-21T22:23:20.346Z,70.20
2017-05-21T22:25:48.029Z,70.10
2017-05-21T22:28:15.665Z,70.10
2017-05-21T22:30:44.422Z,70.00
2017-05-21T22:33:12.873Z,70.40
2017-05-21T22:35:40.517Z,70.30
2017-05-21T22:38:08.949Z,70.30
2017-05-21T22:40:37.378Z,70.40
2017-05-21T22:43:05.432Z,70.40
2017-05-21T22:45:34.029Z,71.80
2017-05-21T22:48:01.675Z,71.80
2017-05-21T22:50:30.119Z,71.80
2017-05-21T22:52:57.769Z,71.30
2017-05-21T22:55:26.477Z,70.40
2017-05-21T22:57:54.121Z,70.60
2017-05-21T23:00:21.771Z,70.90
2017-05-21T23:02:49.442Z,71.50
2017-05-21T23:05:17.093Z,72.50
2017-05-21T23:07:45.813Z,72.30
2017-05-21T23:10:13.457Z,72.30
2017-05-21T23:12:41.101Z,71.90
2017-05-21T23:15:09.538Z,71.50
2017-05-21T23:17:37.955Z,73.40
2017-05-21T23:20:05.930Z,73.40
2017-05-21T23:22:34.345Z,72.00
2017-05-21T23:25:02.005Z,72.00
2017-05-21T23:27:30.453Z,72.70
2017-05-21T23:29:58.117Z,72.50
2017-05-21T23:32:26.856Z,73.00
2017-05-21T23:34:54.507Z,73.00
2017-05-21T23:37:22.917Z,72.80
2017-05-21T23:39:51.367Z,73.30
2017-05-21T23:42:19.787Z,73.90
2017-05-21T23:44:47.769Z,73.90
2017-05-21T23:47:15.417Z,73.20
2017-05-21T23:49:43.078Z,73.20
2017-05-21T23:52:10.753Z,73.20
2017-05-21T23:54:38.403Z,72.90
2017-05-21T23:57:06.496Z,72.20
2017-05-21T23:59:34.148Z,72.90
